createdAt,value
2023-04-24T00:00:01.216Z,13.1
2023-04-24T00:01:06.046Z,13.1
2023-04-24T00:02:01.544Z,13.1
2023-04-24T00:03:03.989Z,13.1
2023-04-24T00:04:01.994Z,13
2023-04-24T00:05:01.130Z,13
2023-04-24T00:06:08.661Z,13
2023-04-24T00:07:01.755Z,13
2023-04-24T00:08:04.583Z,13
2023-04-24T00:09:02.110Z,12.9
2023-04-24T00:10:02.098Z,12.9
2023-04-24T00:11:11.825Z,12.8
2023-04-24T00:12:03.898Z,12.8
2023-04-24T00:13:01.511Z,12.9
2023-04-24T00:14:01.113Z,12.9
2023-04-24T00:15:01.117Z,12.9
2023-04-24T00:16:14.487Z,12.9
2023-04-24T00:17:01.845Z,12.9
2023-04-24T00:18:01.388Z,12.9
2023-04-24T00:19:01.046Z,13
2023-04-24T00:20:01.218Z,13
2023-04-24T00:21:16.775Z,13
2023-04-24T00:22:02.732Z,13
2023-04-24T00:23:02.499Z,13
2023-04-24T00:24:01.745Z,13.1
2023-04-24T00:25:02.410Z,13.1
2023-04-24T00:26:01.090Z,13.1
2023-04-24T00:27:01.104Z,13.1
2023-04-24T00:28:01.104Z,13.1
2023-04-24T00:29:01.408Z,13.2
2023-04-24T00:30:04.169Z,13.2
2023-04-24T00:31:02.136Z,13.2
2023-04-24T00:32:01.183Z,13.1
2023-04-24T00:33:01.078Z,13.1
2023-04-24T00:34:01.036Z,13.1
2023-04-24T00:35:01.048Z,13.1
2023-04-24T00:36:01.040Z,13.1
2023-04-24T00:37:01.047Z,13
2023-04-24T00:38:01.080Z,13.1
2023-04-24T00:39:01.749Z,13
2023-04-24T00:40:01.395Z,13
2023-04-24T00:41:01.149Z,13
2023-04-24T00:42:01.114Z,13
2023-04-24T00:43:01.809Z,13
2023-04-24T00:44:01.121Z,13
2023-04-24T00:45:01.119Z,13
2023-04-24T00:46:01.136Z,13
2023-04-24T00:47:01.875Z,13
2023-04-24T00:48:02.033Z,13
2023-04-24T00:49:01.045Z,13
2023-04-24T00:50:01.043Z,13
2023-04-24T00:51:01.042Z,13.1
2023-04-24T00:52:01.435Z,13.1
2023-04-24T00:53:01.203Z,13.1
2023-04-24T00:54:01.912Z,13.1
2023-04-24T00:55:01.890Z,13.1
2023-04-24T00:56:01.087Z,13.1
2023-04-24T00:57:01.141Z,13.1
2023-04-24T00:58:01.077Z,13.1
2023-04-24T00:59:01.098Z,13.1
2023-04-24T01:00:01.129Z,13.1
2023-04-24T01:01:01.110Z,13.1
2023-04-24T01:02:01.269Z,13.1
2023-04-24T01:03:01.341Z,13.1
2023-04-24T01:04:01.275Z,13.1
2023-04-24T01:05:01.033Z,13.1
2023-04-24T01:06:01.038Z,13
2023-04-24T01:07:01.066Z,13
2023-04-24T01:08:01.065Z,13
2023-04-24T01:09:01.065Z,13
2023-04-24T01:10:01.069Z,12.9
2023-04-24T01:11:01.044Z,12.8
2023-04-24T01:12:01.518Z,12.8
2023-04-24T01:13:03.835Z,12.8
2023-04-24T01:14:01.096Z,12.7
2023-04-24T01:15:01.827Z,12.6
2023-04-24T01:16:01.199Z,12.5
2023-04-24T01:17:01.107Z,12.5
2023-04-24T01:18:01.161Z,12.5
2023-04-24T01:19:01.113Z,12.4
2023-04-24T01:20:01.146Z,12.4
2023-04-24T01:21:01.238Z,12.4
2023-04-24T01:22:01.432Z,12.4
2023-04-24T01:23:01.963Z,12.4
2023-04-24T01:24:01.054Z,12.4
2023-04-24T01:25:01.054Z,12.4
2023-04-24T01:26:01.064Z,12.3
2023-04-24T01:27:01.098Z,12.3
2023-04-24T01:28:01.103Z,12.3
2023-04-24T01:29:01.389Z,12.4
2023-04-24T01:30:01.944Z,12.4
2023-04-24T01:31:02.025Z,12.5
2023-04-24T01:32:01.504Z,12.5
2023-04-24T01:33:01.184Z,12.5
2023-04-24T01:34:01.911Z,12.5
2023-04-24T01:35:01.654Z,12.6
2023-04-24T01:36:01.040Z,12.5
2023-04-24T01:37:00.722Z,12.5
2023-04-24T01:38:00.323Z,12.5
2023-04-24T01:39:00.040Z,12.5
2023-04-24T01:39:59.638Z,12.5
2023-04-24T01:41:01.794Z,12.5
2023-04-24T01:42:02.031Z,12.5
2023-04-24T01:43:01.454Z,12.5
2023-04-24T01:44:01.186Z,12.5
2023-04-24T01:45:01.085Z,12.5
2023-04-24T01:46:01.107Z,12.5
2023-04-24T01:47:01.229Z,12.5
2023-04-24T01:48:01.145Z,12.5
2023-04-24T01:49:01.523Z,12.6
2023-04-24T01:50:01.556Z,12.6
2023-04-24T01:51:01.242Z,12.6
2023-04-24T01:52:03.791Z,12.6
2023-04-24T01:53:01.287Z,12.6
2023-04-24T01:54:01.843Z,12.5
2023-04-24T01:55:01.156Z,12.4
2023-04-24T01:56:01.788Z,12.3
2023-04-24T01:57:08.026Z,12.3
2023-04-24T01:58:02.643Z,12.3
2023-04-24T01:59:01.069Z,12.4
2023-04-24T02:00:01.090Z,12.4
2023-04-24T02:01:01.122Z,12.4
2023-04-24T02:02:11.324Z,12.3
2023-04-24T02:03:01.197Z,12.3
2023-04-24T02:04:01.199Z,12.2
2023-04-24T02:05:01.174Z,12.2
2023-04-24T02:06:01.123Z,12.2
2023-04-24T02:07:15.496Z,12.2
2023-04-24T02:08:01.053Z,12.2
2023-04-24T02:09:01.146Z,12.3
2023-04-24T02:10:01.044Z,12.3
2023-04-24T02:11:01.041Z,12.3
2023-04-24T02:12:01.022Z,12.3
2023-04-24T02:13:01.811Z,12.2
2023-04-24T02:14:01.474Z,12.1
2023-04-24T02:15:01.175Z,12.1
2023-04-24T02:16:01.450Z,12.2
2023-04-24T02:17:01.411Z,12.2
2023-04-24T02:18:02.604Z,12.2
2023-04-24T02:19:02.105Z,12.3
2023-04-24T02:20:01.295Z,12.3
2023-04-24T02:21:01.124Z,12.3
2023-04-24T02:22:01.128Z,12.3
2023-04-24T02:23:01.029Z,12.4
2023-04-24T02:24:01.416Z,12.3
2023-04-24T02:25:01.032Z,12.3
2023-04-24T02:26:01.062Z,12.3
2023-04-24T02:27:01.063Z,12.3
2023-04-24T02:28:01.168Z,12.3
2023-04-24T02:29:01.084Z,12.3
2023-04-24T02:30:01.061Z,12.2
2023-04-24T02:31:01.095Z,12.2
2023-04-24T02:32:01.161Z,12.2
2023-04-24T02:33:01.099Z,12.1
2023-04-24T02:34:01.105Z,12.1
2023-04-24T02:35:01.117Z,12.1
2023-04-24T02:36:01.121Z,12.1
2023-04-24T02:37:01.170Z,12.1
2023-04-24T02:38:01.283Z,12.1
2023-04-24T02:39:01.932Z,12.1
2023-04-24T02:40:01.930Z,12.1
2023-04-24T02:41:01.048Z,12.1
2023-04-24T02:42:01.060Z,12.1
2023-04-24T02:43:01.011Z,12.1
2023-04-24T02:44:03.718Z,12.1
2023-04-24T02:45:01.054Z,12.2
2023-04-24T02:46:01.135Z,12.2
2023-04-24T02:47:01.176Z,12.2
2023-04-24T02:48:01.864Z,12.2
2023-04-24T02:49:02.149Z,12.2
2023-04-24T02:50:01.104Z,12.2
2023-04-24T02:51:01.111Z,12.2
2023-04-24T02:52:01.102Z,12.2
2023-04-24T02:53:01.125Z,12.2
2023-04-24T02:54:01.323Z,12.2
2023-04-24T02:55:01.409Z,12.3
2023-04-24T02:56:01.698Z,12.3
2023-04-24T02:57:01.821Z,12.3
2023-04-24T02:58:02.162Z,12.3
2023-04-24T02:59:02.746Z,12.3
2023-04-24T03:00:01.051Z,12.3
2023-04-24T03:01:01.097Z,12.3
2023-04-24T03:02:01.127Z,12.3
2023-04-24T03:03:01.739Z,12.3
2023-04-24T03:04:08.046Z,12.3
2023-04-24T03:05:01.080Z,12.3
2023-04-24T03:06:01.376Z,12.3
2023-04-24T03:07:01.818Z,12.3
2023-04-24T03:08:01.139Z,12.3
2023-04-24T03:09:01.696Z,12.3
2023-04-24T03:10:01.113Z,12.3
2023-04-24T03:11:01.025Z,12.3
2023-04-24T03:12:01.044Z,12.3
2023-04-24T03:13:01.041Z,12.3
2023-04-24T03:14:01.761Z,12.2
2023-04-24T03:15:01.656Z,12.2
2023-04-24T03:16:02.198Z,12.1
2023-04-24T03:17:01.066Z,12.1
2023-04-24T03:18:01.809Z,12.1
2023-04-24T03:19:01.332Z,12.1
2023-04-24T03:20:01.286Z,12.1
2023-04-24T03:21:02.012Z,12.1
2023-04-24T03:22:02.152Z,12.1
2023-04-24T03:23:02.640Z,12.1
2023-04-24T03:24:00.793Z,12.1
2023-04-24T03:25:00.423Z,12.1
2023-04-24T03:26:00.142Z,12.1
2023-04-24T03:26:59.703Z,12.1
2023-04-24T03:28:04.589Z,12
2023-04-24T03:29:01.289Z,12
2023-04-24T03:30:01.982Z,12
2023-04-24T03:31:02.053Z,12
2023-04-24T03:32:02.172Z,12
2023-04-24T03:33:06.559Z,12
2023-04-24T03:34:01.185Z,12
2023-04-24T03:35:03.833Z,12
2023-04-24T03:36:01.111Z,12
2023-04-24T03:37:01.088Z,12
2023-04-24T03:38:10.193Z,12.1
2023-04-24T03:39:00.996Z,12.1
2023-04-24T03:40:01.119Z,12.1
2023-04-24T03:41:01.157Z,12.1
2023-04-24T03:42:01.126Z,12.1
2023-04-24T03:43:14.516Z,12.1
2023-04-24T03:44:01.856Z,12.1
2023-04-24T03:45:01.394Z,12.1
2023-04-24T03:46:02.065Z,12.1
2023-04-24T03:47:01.449Z,12.1
2023-04-24T03:48:01.076Z,12.1
2023-04-24T03:49:01.084Z,12.1
2023-04-24T03:50:01.330Z,12.1
2023-04-24T03:51:04.030Z,12.1
2023-04-24T03:52:02.069Z,12.1
2023-04-24T03:53:01.089Z,12.1
2023-04-24T03:54:01.101Z,12.1
2023-04-24T03:55:01.113Z,12.2
2023-04-24T03:56:01.134Z,12.1
2023-04-24T03:57:01.130Z,12.2
2023-04-24T03:58:01.023Z,12.2
2023-04-24T03:59:01.032Z,12.2
2023-04-24T04:00:01.066Z,12.3
2023-04-24T04:01:01.035Z,12.3
2023-04-24T04:02:01.079Z,12.3
2023-04-24T04:03:01.130Z,12.3
2023-04-24T04:04:01.219Z,12.3
2023-04-24T04:05:01.199Z,12.3
2023-04-24T04:06:01.109Z,12.3
2023-04-24T04:07:01.026Z,12.3
2023-04-24T04:08:00.671Z,12.3
2023-04-24T04:09:00.438Z,12.3
2023-04-24T04:10:00.274Z,12.3
2023-04-24T04:11:00.014Z,12.3
2023-04-24T04:11:59.991Z,12.3
2023-04-24T04:13:00.304Z,12.3
2023-04-24T04:14:00.306Z,12.3
2023-04-24T04:14:59.891Z,12.3
2023-04-24T04:15:59.517Z,12.3
2023-04-24T04:17:04.860Z,12.3
2023-04-24T04:18:04.027Z,12.3
2023-04-24T04:19:01.025Z,12.3
2023-04-24T04:20:01.119Z,12.4
2023-04-24T04:21:01.049Z,12.4
2023-04-24T04:22:01.068Z,12.5
2023-04-24T04:23:00.778Z,12.5
2023-04-24T04:24:01.363Z,12.5
2023-04-24T04:25:01.127Z,12.5
2023-04-24T04:26:01.955Z,12.5
2023-04-24T04:27:01.505Z,12.6
2023-04-24T04:28:00.750Z,12.6
2023-04-24T04:29:00.408Z,12.6
2023-04-24T04:29:59.971Z,12.6
2023-04-24T04:30:59.794Z,12.6
2023-04-24T04:32:04.613Z,12.7
2023-04-24T04:33:01.356Z,12.7
2023-04-24T04:34:01.179Z,12.7
2023-04-24T04:35:01.152Z,12.7
2023-04-24T04:36:02.560Z,12.8
2023-04-24T04:37:01.073Z,12.8
2023-04-24T04:38:01.076Z,12.8
2023-04-24T04:39:01.090Z,12.8
2023-04-24T04:40:01.452Z,12.8
2023-04-24T04:41:01.447Z,12.8
2023-04-24T04:42:01.487Z,12.8
2023-04-24T04:43:01.200Z,12.9
2023-04-24T04:44:01.125Z,12.9
2023-04-24T04:45:01.122Z,13
2023-04-24T04:46:00.630Z,12.9
2023-04-24T04:47:00.302Z,12.9
2023-04-24T04:47:59.912Z,12.9
2023-04-24T04:48:59.788Z,13
2023-04-24T04:50:01.357Z,13
2023-04-24T04:51:01.155Z,13
2023-04-24T04:52:01.466Z,13
2023-04-24T04:53:01.766Z,13
2023-04-24T04:54:01.766Z,13
2023-04-24T04:55:01.505Z,13.1
2023-04-24T04:56:01.147Z,13.1
2023-04-24T04:57:01.674Z,13.1
2023-04-24T04:58:01.112Z,13.1
2023-04-24T04:59:01.186Z,13.1
2023-04-24T05:00:01.039Z,13.1
2023-04-24T05:01:01.149Z,13
2023-04-24T05:02:01.120Z,13.1
2023-04-24T05:03:12.651Z,13.1
2023-04-24T05:04:01.286Z,13.1
2023-04-24T05:05:01.215Z,13
2023-04-24T05:06:02.067Z,13.1
2023-04-24T05:07:01.064Z,13.1
2023-04-24T05:08:01.298Z,13.1
2023-04-24T05:09:01.524Z,13.1
2023-04-24T05:10:01.223Z,13.1
2023-04-24T05:11:02.016Z,13.1
2023-04-24T05:12:01.092Z,13.1
2023-04-24T05:13:01.084Z,13.1
2023-04-24T05:14:04.786Z,13.2
2023-04-24T05:15:01.100Z,13.2
2023-04-24T05:16:01.224Z,13.2
2023-04-24T05:17:02.208Z,13.2
2023-04-24T05:18:01.173Z,13.3
2023-04-24T05:19:08.605Z,13.3
2023-04-24T05:20:01.026Z,13.3
2023-04-24T05:21:01.039Z,13.3
2023-04-24T05:22:01.076Z,13.3
2023-04-24T05:23:00.742Z,13.3
2023-04-24T05:24:09.701Z,13.3
2023-04-24T05:25:01.749Z,13.3
2023-04-24T05:26:01.106Z,13.3
2023-04-24T05:27:01.067Z,13.3
2023-04-24T05:28:01.546Z,13.3
2023-04-24T05:29:12.339Z,13.3
2023-04-24T05:30:01.706Z,13.4
2023-04-24T05:31:02.561Z,13.4
2023-04-24T05:32:02.540Z,13.4
2023-04-24T05:33:02.424Z,13.5
2023-04-24T05:34:16.657Z,13.5
2023-04-24T05:35:01.907Z,13.5
2023-04-24T05:36:01.739Z,13.5
2023-04-24T05:37:02.966Z,13.6
2023-04-24T05:38:01.151Z,13.7
2023-04-24T05:39:01.084Z,13.8
2023-04-24T05:40:01.431Z,13.9
2023-04-24T05:41:01.020Z,14
2023-04-24T05:42:01.081Z,14.1
2023-04-24T05:43:00.772Z,14.3
2023-04-24T05:44:00.374Z,14.5
2023-04-24T05:44:59.953Z,14.7
2023-04-24T05:45:59.567Z,15
2023-04-24T05:47:01.292Z,15.5
2023-04-24T05:48:01.137Z,15.8
2023-04-24T05:49:01.139Z,16.1
2023-04-24T05:50:01.013Z,16.1
2023-04-24T05:51:01.036Z,16
2023-04-24T05:52:01.106Z,15.8
2023-04-24T05:53:01.041Z,15.7
2023-04-24T05:54:01.049Z,15.6
2023-04-24T05:55:01.047Z,15.5
2023-04-24T05:56:02.105Z,15.3
2023-04-24T05:57:01.322Z,15.3
2023-04-24T05:58:01.454Z,15.6
2023-04-24T05:59:01.489Z,16
2023-04-24T06:00:02.263Z,16.1
2023-04-24T06:01:01.229Z,16.3
2023-04-24T06:02:01.929Z,16.1
2023-04-24T06:03:02.671Z,15.9
2023-04-24T06:04:01.263Z,15.7
2023-04-24T06:05:01.279Z,15.5
2023-04-24T06:06:01.333Z,15.7
2023-04-24T06:07:01.131Z,16
2023-04-24T06:08:01.157Z,16.5
2023-04-24T06:09:01.014Z,16.8
2023-04-24T06:10:01.028Z,17.2
2023-04-24T06:11:02.234Z,17.4
2023-04-24T06:12:01.828Z,17.4
2023-04-24T06:13:01.085Z,17.2
2023-04-24T06:14:01.100Z,17
2023-04-24T06:15:01.418Z,16.7
2023-04-24T06:16:01.629Z,16.5
2023-04-24T06:17:01.087Z,16.3
2023-04-24T06:18:01.048Z,16.1
2023-04-24T06:19:01.116Z,16
2023-04-24T06:20:00.678Z,15.9
2023-04-24T06:21:00.335Z,15.8
2023-04-24T06:21:59.987Z,15.7
2023-04-24T06:22:59.836Z,15.6
2023-04-24T06:24:01.890Z,15.5
2023-04-24T06:25:02.576Z,15.4
2023-04-24T06:26:01.438Z,15.3
2023-04-24T06:27:01.082Z,15.3
2023-04-24T06:28:01.054Z,15.3
2023-04-24T06:29:01.094Z,15.3
2023-04-24T06:30:01.068Z,15.3
2023-04-24T06:31:01.108Z,15.3
2023-04-24T06:32:01.148Z,15.2
2023-04-24T06:33:12.860Z,15.3
2023-04-24T06:34:01.498Z,15.3
2023-04-24T06:35:08.559Z,15.3
2023-04-24T06:36:01.320Z,15.3
2023-04-24T06:37:01.142Z,15.2
2023-04-24T06:38:01.018Z,15.2
2023-04-24T06:39:01.036Z,15.2
2023-04-24T06:40:00.626Z,15.1
2023-04-24T06:41:00.213Z,15.1
2023-04-24T06:41:59.885Z,15.1
2023-04-24T06:42:59.537Z,15.1
2023-04-24T06:44:01.573Z,15.1
2023-04-24T06:45:01.157Z,15.1
2023-04-24T06:46:01.133Z,15.1
2023-04-24T06:47:01.191Z,15.1
2023-04-24T06:48:01.183Z,15.1
2023-04-24T06:49:01.464Z,15.1
2023-04-24T06:50:00.660Z,15.2
2023-04-24T06:51:00.393Z,15.1
2023-04-24T06:52:00.069Z,15.1
2023-04-24T06:52:59.766Z,15
2023-04-24T06:54:02.035Z,15
2023-04-24T06:55:04.391Z,15
2023-04-24T06:56:01.062Z,15
2023-04-24T06:57:01.035Z,15
2023-04-24T06:58:01.636Z,15
2023-04-24T06:59:01.165Z,15
2023-04-24T07:00:07.784Z,15
2023-04-24T07:01:01.972Z,15
2023-04-24T07:02:01.037Z,15
2023-04-24T07:03:00.934Z,15
2023-04-24T07:04:00.870Z,15
2023-04-24T07:05:10.548Z,15
2023-04-24T07:06:01.170Z,15
2023-04-24T07:07:01.401Z,15.1
2023-04-24T07:08:04.414Z,15.1
2023-04-24T07:09:03.235Z,15.1
2023-04-24T07:10:13.640Z,15.1
2023-04-24T07:11:02.016Z,15.1
2023-04-24T07:12:01.062Z,15.2
2023-04-24T07:13:01.644Z,15.2
2023-04-24T07:14:01.045Z,15.3
2023-04-24T07:15:16.153Z,15.3
2023-04-24T07:16:01.838Z,15.3
2023-04-24T07:17:01.108Z,15.4
2023-04-24T07:18:03.360Z,15.5
2023-04-24T07:19:01.090Z,15.5
2023-04-24T07:20:01.123Z,15.5
2023-04-24T07:21:01.098Z,15.5
2023-04-24T07:22:01.120Z,15.6
2023-04-24T07:23:00.799Z,15.6
2023-04-24T07:24:00.367Z,15.6
2023-04-24T07:25:00.252Z,15.6
2023-04-24T07:25:59.879Z,15.6
2023-04-24T07:26:59.506Z,15.6
2023-04-24T07:28:01.077Z,15.6
2023-04-24T07:29:01.056Z,15.7
2023-04-24T07:30:01.087Z,15.8
2023-04-24T07:31:01.297Z,15.8
2023-04-24T07:32:04.069Z,15.8
2023-04-24T07:33:01.423Z,15.8
2023-04-24T07:34:02.120Z,15.8
2023-04-24T07:35:01.212Z,15.8
2023-04-24T07:36:01.105Z,15.8
2023-04-24T07:37:01.459Z,15.8
2023-04-24T07:38:01.144Z,15.8
2023-04-24T07:39:01.119Z,15.8
2023-04-24T07:40:01.116Z,15.8
2023-04-24T07:41:01.261Z,15.8
2023-04-24T07:42:01.415Z,15.8
2023-04-24T07:43:01.479Z,15.8
2023-04-24T07:44:01.051Z,15.8
2023-04-24T07:45:01.062Z,15.9
2023-04-24T07:46:01.095Z,15.9
2023-04-24T07:47:01.073Z,15.9
2023-04-24T07:48:01.116Z,15.9
2023-04-24T07:49:12.487Z,16
2023-04-24T07:50:01.086Z,16
2023-04-24T07:51:01.208Z,16
2023-04-24T07:52:01.211Z,16
2023-04-24T07:53:01.482Z,16
2023-04-24T07:54:02.876Z,16
2023-04-24T07:55:02.892Z,16
2023-04-24T07:56:01.030Z,16
2023-04-24T07:57:01.803Z,16
2023-04-24T07:58:01.839Z,16
2023-04-24T07:59:01.876Z,16
2023-04-24T08:00:01.723Z,16
2023-04-24T08:01:01.390Z,15.9
2023-04-24T08:02:02.070Z,16
2023-04-24T08:03:01.411Z,16
2023-04-24T08:04:01.398Z,16
2023-04-24T08:05:01.174Z,16
2023-04-24T08:06:01.224Z,16
2023-04-24T08:07:02.525Z,16
2023-04-24T08:08:02.414Z,16
2023-04-24T08:09:01.146Z,15.9
2023-04-24T08:10:01.112Z,15.9
2023-04-24T08:11:01.543Z,15.9
2023-04-24T08:12:01.110Z,15.9
2023-04-24T08:13:01.112Z,15.8
2023-04-24T08:14:01.046Z,15.9
2023-04-24T08:15:01.222Z,15.9
2023-04-24T08:16:01.046Z,15.9
2023-04-24T08:17:01.042Z,16
2023-04-24T08:18:01.085Z,16
2023-04-24T08:19:01.081Z,16
2023-04-24T08:20:01.072Z,16
2023-04-24T08:21:01.460Z,15.9
2023-04-24T08:22:01.204Z,15.9
2023-04-24T08:23:01.225Z,15.9
2023-04-24T08:24:01.103Z,16
2023-04-24T08:25:01.147Z,16
2023-04-24T08:26:01.110Z,16
2023-04-24T08:27:01.018Z,16
2023-04-24T08:28:01.039Z,16.1
2023-04-24T08:29:01.168Z,16.1
2023-04-24T08:30:01.194Z,16.1
2023-04-24T08:31:02.237Z,16.1
2023-04-24T08:32:02.679Z,16.1
2023-04-24T08:33:01.153Z,16.2
2023-04-24T08:34:00.385Z,16.3
2023-04-24T08:34:59.929Z,16.3
2023-04-24T08:36:00.597Z,16.3
2023-04-24T08:37:00.169Z,16.3
2023-04-24T08:37:59.739Z,16.3
2023-04-24T08:39:02.653Z,16.3
2023-04-24T08:40:01.847Z,16.3
2023-04-24T08:41:03.891Z,16.3
2023-04-24T08:42:01.323Z,16.3
2023-04-24T08:43:00.610Z,16.3
2023-04-24T08:44:00.188Z,16.3
2023-04-24T08:44:59.781Z,16.2
2023-04-24T08:46:06.573Z,16.3
2023-04-24T08:47:01.032Z,16.3
2023-04-24T08:48:01.074Z,16.3
2023-04-24T08:49:01.042Z,16.3
2023-04-24T08:50:01.237Z,16.3
2023-04-24T08:51:06.728Z,16.4
2023-04-24T08:52:01.366Z,16.5
2023-04-24T08:53:03.962Z,16.5
2023-04-24T08:54:01.082Z,16.5
2023-04-24T08:55:01.088Z,16.6
2023-04-24T08:56:08.960Z,16.6
2023-04-24T08:57:01.096Z,16.6
2023-04-24T08:58:01.012Z,16.7
2023-04-24T08:59:01.408Z,16.7
2023-04-24T09:00:01.516Z,16.7
2023-04-24T09:01:12.673Z,16.8
2023-04-24T09:02:00.646Z,16.8
2023-04-24T09:03:00.437Z,16.9
2023-04-24T09:04:00.417Z,16.9
2023-04-24T09:05:00.227Z,17
2023-04-24T09:06:13.849Z,17
2023-04-24T09:07:01.068Z,17
2023-04-24T09:08:00.448Z,17.1
2023-04-24T09:09:00.057Z,17.1
2023-04-24T09:09:59.743Z,17
2023-04-24T09:11:16.736Z,17
2023-04-24T09:12:01.246Z,17
2023-04-24T09:13:01.099Z,17
2023-04-24T09:14:01.132Z,17
2023-04-24T09:15:01.117Z,17
2023-04-24T09:16:01.118Z,17
2023-04-24T09:17:01.070Z,17
2023-04-24T09:18:03.935Z,17.1
2023-04-24T09:19:01.435Z,17.1
2023-04-24T09:20:01.029Z,17.1
2023-04-24T09:21:01.115Z,17.1
2023-04-24T09:22:00.896Z,17.1
2023-04-24T09:23:01.158Z,17.1
2023-04-24T09:24:01.069Z,17.2
2023-04-24T09:25:01.192Z,17.3
2023-04-24T09:26:01.221Z,17.3
2023-04-24T09:27:01.104Z,17.3
2023-04-24T09:28:01.865Z,17.3
2023-04-24T09:29:01.321Z,17.4
2023-04-24T09:30:01.046Z,17.3
2023-04-24T09:31:01.028Z,17.3
2023-04-24T09:32:01.253Z,17.3
2023-04-24T09:33:02.589Z,17.3
2023-04-24T09:34:02.612Z,17.4
2023-04-24T09:35:01.893Z,17.4
2023-04-24T09:36:01.238Z,17.4
2023-04-24T09:37:01.450Z,17.5
2023-04-24T09:38:01.064Z,17.5
2023-04-24T09:39:01.081Z,17.6
2023-04-24T09:40:01.080Z,17.6
2023-04-24T09:41:01.290Z,17.6
2023-04-24T09:42:00.672Z,17.7
2023-04-24T09:43:00.264Z,17.7
2023-04-24T09:43:59.860Z,17.6
2023-04-24T09:45:08.314Z,17.6
2023-04-24T09:46:01.135Z,17.6
2023-04-24T09:47:01.501Z,17.5
2023-04-24T09:48:01.049Z,17.6
2023-04-24T09:49:01.029Z,17.6
2023-04-24T09:50:01.031Z,17.6
2023-04-24T09:51:01.066Z,17.6
2023-04-24T09:52:00.639Z,17.6
2023-04-24T09:53:00.217Z,17.5
2023-04-24T09:53:59.795Z,17.5
2023-04-24T09:55:01.356Z,17.5
2023-04-24T09:56:02.000Z,17.5
2023-04-24T09:57:01.503Z,17.4
2023-04-24T09:58:01.476Z,17.3
2023-04-24T09:59:01.209Z,17.3
2023-04-24T10:00:01.939Z,17.2
2023-04-24T10:01:01.056Z,17.1
2023-04-24T10:02:01.178Z,17
2023-04-24T10:03:02.602Z,17
2023-04-24T10:04:02.466Z,17
2023-04-24T10:05:01.704Z,16.9
2023-04-24T10:06:01.146Z,16.9
2023-04-24T10:07:03.907Z,16.8
2023-04-24T10:08:01.060Z,16.8
2023-04-24T10:09:01.088Z,16.8
2023-04-24T10:10:01.061Z,16.8
2023-04-24T10:11:01.209Z,16.8
2023-04-24T10:12:01.093Z,16.9
2023-04-24T10:13:00.792Z,16.9
2023-04-24T10:14:00.618Z,16.9
2023-04-24T10:15:00.173Z,16.9
2023-04-24T10:15:59.770Z,17
2023-04-24T10:17:01.470Z,17
2023-04-24T10:18:02.988Z,17.1
2023-04-24T10:19:01.158Z,17.1
2023-04-24T10:20:01.053Z,17.2
2023-04-24T10:21:01.049Z,17.3
2023-04-24T10:22:00.831Z,17.4
2023-04-24T10:23:01.045Z,17.5
2023-04-24T10:24:01.441Z,17.6
2023-04-24T10:25:01.168Z,17.6
2023-04-24T10:26:01.246Z,17.7
2023-04-24T10:27:01.060Z,17.7
2023-04-24T10:28:01.059Z,17.7
2023-04-24T10:29:01.112Z,17.6
2023-04-24T10:30:01.107Z,17.6
2023-04-24T10:31:01.065Z,17.6
2023-04-24T10:32:01.286Z,17.6
2023-04-24T10:33:01.556Z,17.5
2023-04-24T10:34:02.183Z,17.5
2023-04-24T10:35:01.196Z,17.5
2023-04-24T10:36:01.130Z,17.5
2023-04-24T10:37:03.703Z,17.5
2023-04-24T10:38:01.039Z,17.5
2023-04-24T10:39:01.046Z,17.5
2023-04-24T10:40:01.017Z,17.4
2023-04-24T10:41:01.021Z,17.3
2023-04-24T10:42:05.619Z,17.3
2023-04-24T10:43:01.402Z,17.3
2023-04-24T10:44:02.628Z,17.3
2023-04-24T10:45:01.138Z,17.3
2023-04-24T10:46:01.050Z,17.2
2023-04-24T10:47:09.186Z,17.3
2023-04-24T10:48:02.479Z,17.2
2023-04-24T10:49:01.338Z,17.2
2023-04-24T10:50:01.204Z,17.2
2023-04-24T10:51:01.513Z,17.2
2023-04-24T10:52:12.289Z,17.2
2023-04-24T10:53:01.133Z,17.2
2023-04-24T10:54:00.726Z,17.1
2023-04-24T10:55:00.327Z,17.1
2023-04-24T10:56:00.027Z,17.1
2023-04-24T10:57:14.224Z,17
2023-04-24T10:58:01.059Z,17
2023-04-24T10:59:01.311Z,17
2023-04-24T11:00:01.100Z,17
2023-04-24T11:01:01.044Z,17
2023-04-24T11:02:16.889Z,17
2023-04-24T11:03:01.676Z,17
2023-04-24T11:04:01.201Z,17
2023-04-24T11:05:02.034Z,17
2023-04-24T11:06:04.102Z,17
2023-04-24T11:07:01.129Z,17
2023-04-24T11:08:01.025Z,17
2023-04-24T11:09:01.034Z,16.9
2023-04-24T11:10:01.048Z,17
2023-04-24T11:11:01.037Z,17
2023-04-24T11:12:01.181Z,17
2023-04-24T11:13:01.284Z,17
2023-04-24T11:14:02.078Z,17
2023-04-24T11:15:01.619Z,17
2023-04-24T11:16:01.094Z,17
2023-04-24T11:17:01.210Z,17
2023-04-24T11:18:01.114Z,17
2023-04-24T11:19:01.097Z,17
2023-04-24T11:20:03.326Z,17.1
2023-04-24T11:21:01.106Z,17.1
2023-04-24T11:22:01.142Z,17.1
2023-04-24T11:23:01.296Z,17.2
2023-04-24T11:24:01.435Z,17.3
2023-04-24T11:25:02.973Z,17.3
2023-04-24T11:26:01.145Z,17.3
2023-04-24T11:27:01.152Z,17.3
2023-04-24T11:28:01.065Z,17.3
2023-04-24T11:29:01.069Z,17.3
2023-04-24T11:30:01.510Z,17.3
2023-04-24T11:31:01.172Z,17.3
2023-04-24T11:32:01.248Z,17.2
2023-04-24T11:33:01.107Z,17.1
2023-04-24T11:34:01.084Z,17.1
2023-04-24T11:35:01.104Z,17.1
2023-04-24T11:36:01.104Z,17.1
2023-04-24T11:37:01.102Z,17.1
2023-04-24T11:39:01.014Z,17
2023-04-24T11:40:02.066Z,17
2023-04-24T11:41:01.200Z,17.1
2023-04-24T11:42:01.512Z,17
2023-04-24T11:43:01.058Z,17
2023-04-24T11:44:00.742Z,17.1
2023-04-24T11:45:00.638Z,17.1
2023-04-24T11:46:01.419Z,17.1
2023-04-24T11:47:01.117Z,17.1
2023-04-24T11:48:02.138Z,17.1
2023-04-24T11:49:01.472Z,17.1
2023-04-24T11:50:02.636Z,17.1
2023-04-24T11:51:01.207Z,17.1
2023-04-24T11:52:01.432Z,17.1
2023-04-24T11:53:01.428Z,17.1
2023-04-24T11:54:04.374Z,17.2
2023-04-24T11:55:01.833Z,17.2
2023-04-24T11:56:01.947Z,17.2
2023-04-24T11:57:01.052Z,17.2
2023-04-24T11:58:01.115Z,17.2
2023-04-24T11:59:01.074Z,17.3
2023-04-24T12:00:01.514Z,17.3
2023-04-24T12:01:01.459Z,17.3
2023-04-24T12:02:01.514Z,17.4
2023-04-24T12:03:01.125Z,17.5
2023-04-24T12:04:01.277Z,17.5
2023-04-24T12:05:01.365Z,17.6
2023-04-24T12:06:01.171Z,17.6
2023-04-24T12:07:01.102Z,17.6
2023-04-24T12:08:01.173Z,17.7
2023-04-24T12:09:04.931Z,17.7
2023-04-24T12:10:01.667Z,17.7
2023-04-24T12:11:02.267Z,17.8
2023-04-24T12:12:01.130Z,17.8
2023-04-24T12:13:01.046Z,17.8
2023-04-24T12:14:01.038Z,17.8
2023-04-24T12:15:01.671Z,17.8
2023-04-24T12:16:01.604Z,17.7
2023-04-24T12:17:01.918Z,17.7
2023-04-24T12:18:01.528Z,17.6
2023-04-24T12:19:01.215Z,17.6
2023-04-24T12:20:01.081Z,17.6
2023-04-24T12:21:01.449Z,17.6
2023-04-24T12:22:00.493Z,17.6
2023-04-24T12:23:00.191Z,17.6
2023-04-24T12:23:59.763Z,17.6
2023-04-24T12:25:01.410Z,17.6
2023-04-24T12:26:01.047Z,17.6
2023-04-24T12:27:01.408Z,17.6
2023-04-24T12:28:02.549Z,17.7
2023-04-24T12:29:01.060Z,17.7
2023-04-24T12:30:01.073Z,17.7
2023-04-24T12:31:01.143Z,17.8
2023-04-24T12:32:01.313Z,17.7
2023-04-24T12:33:07.022Z,17.7
2023-04-24T12:34:01.104Z,17.8
2023-04-24T12:35:01.121Z,17.7
2023-04-24T12:36:01.098Z,17.7
2023-04-24T12:37:01.124Z,17.7
2023-04-24T12:38:09.881Z,17.7
2023-04-24T12:39:01.777Z,17.7
2023-04-24T12:40:01.408Z,17.7
2023-04-24T12:41:02.542Z,17.7
2023-04-24T12:42:01.999Z,17.7
2023-04-24T12:43:12.992Z,17.8
2023-04-24T12:44:01.047Z,17.8
2023-04-24T12:45:01.085Z,17.8
2023-04-24T12:46:01.060Z,17.9
2023-04-24T12:47:01.134Z,17.9
2023-04-24T12:48:16.034Z,17.9
2023-04-24T12:49:01.582Z,18
2023-04-24T12:50:01.252Z,18
2023-04-24T12:51:01.081Z,18
2023-04-24T12:52:01.088Z,18.1
2023-04-24T12:53:01.109Z,18.1
2023-04-24T12:54:01.107Z,18.1
2023-04-24T12:55:01.110Z,18.1
2023-04-24T12:56:01.107Z,18
2023-04-24T12:57:01.145Z,18
2023-04-24T12:58:01.077Z,17.9
2023-04-24T12:59:01.025Z,17.9
2023-04-24T13:00:01.109Z,17.8
2023-04-24T13:01:01.084Z,17.8
2023-04-24T13:02:01.088Z,17.8
2023-04-24T13:03:00.959Z,17.7
2023-04-24T13:04:01.287Z,17.6
2023-04-24T13:05:01.090Z,17.6
2023-04-24T13:06:01.471Z,17.5
2023-04-24T13:07:01.223Z,17.5
2023-04-24T13:08:01.529Z,17.5
2023-04-24T13:09:01.606Z,17.4
2023-04-24T13:10:01.206Z,17.3
2023-04-24T13:11:01.136Z,17.1
2023-04-24T13:12:01.108Z,17.1
2023-04-24T13:13:01.128Z,17
2023-04-24T13:14:01.026Z,17
2023-04-24T13:15:01.040Z,17
2023-04-24T13:16:01.096Z,17
2023-04-24T13:17:01.216Z,17
2023-04-24T13:18:01.097Z,17.1
2023-04-24T13:19:01.241Z,17.1
2023-04-24T13:20:01.136Z,17.1
2023-04-24T13:21:01.101Z,17.3
2023-04-24T13:22:01.082Z,17.2
2023-04-24T13:23:01.196Z,17.2
2023-04-24T13:24:01.105Z,17.2
2023-04-24T13:25:01.139Z,17.3
2023-04-24T13:26:01.512Z,17.3
2023-04-24T13:27:01.258Z,17.3
2023-04-24T13:28:01.142Z,17.3
2023-04-24T13:29:01.179Z,17.3